Airfield :
LOGIN :

Register | Disclaimer

   EN    FR    IT 

 










Legend :    VFR   Marginal VFR   IFR   Intensive IFR   Very Intensive IFR
Visi :
Ceiling :
>= 8 km
>= 3000ft
5 to 8 km
1000 to 3000 ft
1500m to 5 km
500 to 1000 ft
800 to 1500m
200 to 500 ft
< 800m
< 200 ft
Symbols :   Thunderstorms  Fog  Heavy snow  Heavy precipitations  Wind > 20 kt
SIGMETs :     Misc.  Thunderstorms  Icing  Turbulence  Mountain Waves  Volcanic Ashes






- Airport Elevation : 14 ft
- IATA code : BRE


EDDW - Bremen Neuenland

CURRENT METAR :
  • 230220Z 29009KT 9999 SCT017 BKN026 05/02 Q1026

EXPIRED METARs :
  • 230150Z 29009KT 9999 BKN030 05/02 Q1026
  • 230120Z 28010KT 9999 BKN028 05/02 Q1025
  • 230050Z 28011KT 9999 BKN028 05/02 Q1025
  • 230020Z 29009KT 9999 BKN026 05/02 Q1025
  • 222350Z 29009KT 9999 FEW026 05/02 Q1025

TAF TAF EDDW
Valid from the 23 at 00:00 until the 24 at 00:00 UTC


222300Z 2300/2324 29007KT 9999 SCT025
BECMG 2306/2308 30012KT
BECMG 2317/2319 32006KT



MET'MAP, your aeronautical weather chart ! - Copyright ORBIFLY December 2007 - Disclaimer

ORBIFLY MET'MAP TEAM :

Programming & Development : Alexandra Zaïnal
Concept & original design : Baudouin d'Aumeries
Assistance for programming : Marc-Olivier Méhu
Technical & hardware support : Manuel Goepfert

Contact : metmap@orbifly.com




SOURCES & CREDITS :

   NOAA